Time;durP1;ratioP1;P1;durP2;ratioP2;P2;SDS_P1;SDS_P2;PMS_P1;PMS_P2;Temp;Humidity;BMP_temperature;BMP_pressure;BME280_temperature;BME280_humidity;BME280_pressure;Samples;Min_cycle;Max_cycle;Signal;HPM_P1;HPM_P2
2022/11/05 00:10:27;;;;;;;14.77;11.18;;;;;;;22.45;44.05;94510.22;5062122;28;20066;-63
2022/11/05 00:18:21;;;;;;;13.57;10.60;;;;;;;22.59;44.04;94514.50;5057291;28;20376;-67
2022/11/05 00:20:47;;;;;;;14.60;10.30;;;;;;;21.68;44.21;94392.81;5032586;28;20500;-70
2022/11/05 00:25:58;;;;;;;14.25;10.45;;;;;;;22.58;44.37;94513.03;5059108;28;20520;-64
2022/11/05 00:28:24;;;;;;;15.15;10.70;;;;;;;22.39;44.15;94490.56;5056359;28;20436;-65
2022/11/05 00:30:50;;;;;;;14.40;10.07;;;;;;;22.57;44.25;94506.88;5053134;28;20531;-70
2022/11/05 00:33:16;;;;;;;16.38;10.70;;;;;;;22.54;44.27;94485.38;5063176;28;20048;-69
2022/11/05 00:35:41;;;;;;;14.35;10.00;;;;;;;22.56;43.89;94505.38;5064417;28;20056;-62
2022/11/05 00:38:06;;;;;;;14.68;10.73;;;;;;;22.41;44.37;94509.81;5036152;28;20505;-69
2022/11/05 00:40:32;;;;;;;12.75;10.02;;;;;;;22.56;44.00;94516.28;5067240;28;20511;-71
2022/11/05 00:45:42;;;;;;;15.57;10.10;;;;;;;22.55;44.25;94524.94;5054300;28;20136;-67
2022/11/05 00:50:51;;;;;;;13.50;9.80;;;;;;;22.56;44.33;94499.22;5062526;28;20443;-67
2022/11/05 00:53:16;;;;;;;13.70;9.98;;;;;;;22.55;44.45;94497.75;5046665;28;20044;-65
2022/11/05 00:55:43;;;;;;;14.15;10.25;;;;;;;22.52;44.43;94482.44;5026461;28;20029;-69
2022/11/05 00:58:10;;;;;;;12.88;10.10;;;;;;;22.54;44.48;94490.81;5027183;28;20040;-68
2022/11/05 01:00:38;;;;;;;12.38;9.55;;;;;;;22.53;44.49;94486.63;5049352;28;20041;-67
2022/11/05 01:03:06;;;;;;;15.15;10.07;;;;;;;22.54;44.55;94486.13;5064259;28;20085;-67
2022/11/05 01:05:32;;;;;;;13.85;9.65;;;;;;;22.53;44.04;94483.91;5059147;28;20474;-64
2022/11/05 01:07:58;;;;;;;12.65;10.30;;;;;;;22.52;44.07;94483.16;5036621;28;20053;-63
2022/11/05 01:10:23;;;;;;;13.77;10.05;;;;;;;21.77;44.41;94365.28;5060795;28;20428;-60
2022/11/05 01:12:49;;;;;;;13.90;10.60;;;;;;;22.42;44.30;94470.47;5038746;28;20044;-70
2022/11/05 01:15:15;;;;;;;14.15;9.98;;;;;;;22.50;44.49;94479.50;5047261;28;20084;-68
2022/11/05 01:17:41;;;;;;;12.95;9.82;;;;;;;22.52;44.09;94471.56;5059859;28;20032;-66
2022/11/05 01:20:06;;;;;;;13.15;9.77;;;;;;;22.51;44.33;94475.53;5064153;28;20109;-69
2022/11/05 01:22:32;;;;;;;12.50;9.75;;;;;;;22.46;44.63;94468.19;5064671;28;20017;-65
2022/11/05 01:24:57;;;;;;;13.07;10.18;;;;;;;22.49;44.32;94464.44;5059337;28;20037;-65
2022/11/05 01:27:23;;;;;;;13.80;10.27;;;;;;;21.71;44.52;94345.59;5047474;28;20575;-65
2022/11/05 01:29:48;;;;;;;12.57;9.13;;;;;;;22.50;44.56;94463.19;5058470;28;20502;-69
2022/11/05 01:32:13;;;;;;;11.57;9.18;;;;;;;22.50;44.44;94446.84;5053966;28;20496;-69
2022/11/05 01:34:39;;;;;;;12.68;9.35;;;;;;;22.40;44.09;94448.47;5049909;28;20563;-67
2022/11/05 01:37:04;;;;;;;14.55;10.13;;;;;;;22.49;44.60;94457.00;5036701;28;20043;-67
2022/11/05 01:39:30;;;;;;;11.60;9.43;;;;;;;21.71;44.52;94351.03;5052608;28;20049;-63
2022/11/05 01:41:57;;;;;;;14.68;9.68;;;;;;;22.49;43.97;94445.38;5062820;28;20075;-64
2022/11/05 01:44:52;;;;;;;13.45;9.93;;;;;;;22.50;44.52;94435.97;5048932;28;20044;-71
2022/11/05 01:47:28;;;;;;;12.60;9.60;;;;;;;22.50;44.62;94435.97;5039001;28;20072;-66
2022/11/05 01:49:54;;;;;;;13.75;10.05;;;;;;;22.49;44.55;94437.22;5049369;28;20398;-69
2022/11/05 01:52:20;;;;;;;14.02;9.98;;;;;;;22.46;44.26;94452.56;5019249;28;20063;-67
2022/11/05 01:54:46;;;;;;;13.10;9.18;;;;;;;22.45;44.30;94434.81;5043156;28;20546;-63
2022/11/05 01:57:12;;;;;;;12.00;9.63;;;;;;;20.78;44.45;94180.41;5062610;28;20048;-69
2022/11/05 01:59:42;;;;;;;13.25;9.77;;;;;;;22.42;44.31;94438.56;5052094;28;20037;-68
2022/11/05 02:02:08;;;;;;;;;;;;;;;22.46;44.26;94430.09;5042631;28;20197;-68
2022/11/05 02:04:39;;;;;;;11.73;8.88;;;;;;;22.46;44.58;94435.53;5054513;28;20300;-69
2022/11/05 02:07:04;;;;;;;11.75;9.65;;;;;;;22.29;44.18;94388.06;5058156;28;20044;-65
2022/11/05 02:09:33;;;;;;;11.15;9.00;;;;;;;22.46;44.44;94440.97;5063519;28;20040;-70
2022/11/05 02:11:59;;;;;;;12.75;9.23;;;;;;;22.46;44.45;94424.66;5028414;28;20047;-69
2022/11/05 02:14:24;;;;;;;12.50;9.30;;;;;;;21.52;44.29;94285.09;5046364;28;20134;-65
2022/11/05 02:16:51;;;;;;;11.38;9.35;;;;;;;22.24;44.53;94403.22;5024994;28;20377;-68
2022/11/05 02:19:32;;;;;;;11.73;9.23;;;;;;;22.44;44.37;94438.03;5040731;28;20035;-69
2022/11/05 02:22:06;;;;;;;12.15;9.05;;;;;;;22.44;44.42;94421.72;5058351;28;20098;-64
2022/11/05 02:24:32;;;;;;;12.98;9.50;;;;;;;22.43;44.26;94420.25;5059652;28;20483;-67
2022/11/05 02:27:06;;;;;;;13.02;9.57;;;;;;;22.43;44.61;94433.84;5045608;28;20098;-66
2022/11/05 02:29:56;;;;;;;12.48;9.48;;;;;;;22.42;44.62;94419.50;5026949;28;20135;-70
2022/11/05 02:32:34;;;;;;;12.55;9.75;;;;;;;22.43;44.49;94422.97;5070876;28;20040;-68
2022/11/05 02:35:07;;;;;;;10.77;8.82;;;;;;;22.24;44.52;94413.34;5060014;28;20572;-65
2022/11/05 02:37:40;;;;;;;12.00;9.40;;;;;;;21.78;44.40;94340.31;5046725;28;20039;-63
2022/11/05 02:40:27;;;;;;;13.27;9.45;;;;;;;22.42;44.54;94424.22;5033260;28;20068;-59
2022/11/05 02:43:40;;;;;;;11.60;8.82;;;;;;;22.42;44.48;94424.22;5024721;28;20045;-64
2022/11/05 02:46:32;;;;;;;11.60;9.20;;;;;;;22.41;44.56;94422.03;4980367;28;20068;-70
2022/11/05 02:49:08;;;;;;;12.93;9.20;;;;;;;22.40;44.15;94424.00;4980807;28;20030;-68
2022/11/05 02:51:49;;;;;;;11.88;9.10;;;;;;;21.83;44.32;94336.06;5010796;28;20045;-70
2022/11/05 02:54:18;;;;;;;12.60;9.55;;;;;;;22.41;44.53;94433.63;5028258;28;20061;-64
2022/11/05 02:56:45;;;;;;;11.30;8.90;;;;;;;22.41;44.77;94428.19;5026113;28;20569;-61
2022/11/05 02:59:11;;;;;;;12.73;9.50;;;;;;;22.39;44.71;94425.25;5044442;28;20049;-66
2022/11/05 03:01:36;;;;;;;12.60;9.27;;;;;;;22.15;44.44;94389.97;5056214;28;20094;-69
2022/11/05 03:04:03;;;;;;;12.07;9.13;;;;;;;22.26;44.46;94406.16;5053919;28;20044;-68
2022/11/05 03:06:50;;;;;;;11.70;9.18;;;;;;;22.38;44.64;94429.22;5036849;28;20141;-63
2022/11/05 03:09:25;;;;;;;10.70;8.88;;;;;;;21.42;44.15;94286.69;5062281;28;20133;-62
2022/11/05 03:12:15;;;;;;;12.95;10.02;;;;;;;22.40;44.69;94443.03;5062472;28;20041;-71
2022/11/05 03:14:59;;;;;;;12.45;9.13;;;;;;;22.39;44.29;94436.16;5025332;28;20076;-66
2022/11/05 03:17:43;;;;;;;11.43;9.32;;;;;;;22.39;44.06;94421.78;5056357;28;20499;-66
2022/11/05 03:20:18;;;;;;;13.65;9.80;;;;;;;22.30;44.27;94411.28;5049887;28;20453;-70
2022/11/05 03:23:02;;;;;;;11.82;8.90;;;;;;;21.58;44.45;94310.19;5062150;28;20072;-70
2022/11/05 03:25:28;;;;;;;12.10;9.32;;;;;;;22.38;44.56;94437.38;5064529;28;20037;-69
2022/11/05 03:27:56;;;;;;;11.20;8.80;;;;;;;22.15;44.51;94400.84;5042784;28;20129;-68
2022/11/05 03:30:23;;;;;;;12.20;8.80;;;;;;;21.54;44.29;94309.78;5024683;28;20047;-69
2022/11/05 03:32:52;;;;;;;12.15;9.23;;;;;;;22.36;44.63;94442.63;5056441;28;20051;-64
2022/11/05 03:35:29;;;;;;;10.98;8.75;;;;;;;20.63;44.20;94185.50;5046849;28;20040;-64
2022/11/05 03:38:00;;;;;;;11.75;9.25;;;;;;;22.35;44.69;94446.56;5060059;28;20048;-63
2022/11/05 03:40:26;;;;;;;11.43;9.18;;;;;;;22.21;44.54;94426.00;5044799;28;20562;-65
2022/11/05 03:42:53;;;;;;;10.73;8.57;;;;;;;22.33;44.32;94451.81;5027363;28;20052;-71
2022/11/05 03:45:28;;;;;;;11.55;9.32;;;;;;;22.36;44.43;94480.69;5009222;28;20041;-65
2022/11/05 03:47:55;;;;;;;11.45;8.70;;;;;;;22.36;44.28;94475.25;5023622;28;20423;-70
2022/11/05 03:50:41;;;;;;;10.82;8.32;;;;;;;22.35;44.37;94470.34;5024137;28;20443;-69
2022/11/05 03:53:10;;;;;;;12.13;9.40;;;;;;;22.35;44.54;94465.63;5055211;28;20045;-68
2022/11/05 03:55:43;;;;;;;11.75;8.80;;;;;;;22.23;44.57;94450.69;5044549;28;20040;-69
2022/11/05 03:58:09;;;;;;;11.20;8.25;;;;;;;22.35;44.02;94473.78;5025066;28;20559;-67
2022/11/05 04:00:34;;;;;;;11.95;8.77;;;;;;;22.31;44.57;94462.44;5060947;28;20046;-66
2022/11/05 04:03:00;;;;;;;12.13;9.25;;;;;;;22.25;44.70;94461.78;5033520;28;20053;-66
2022/11/05 04:05:25;;;;;;;11.70;8.07;;;;;;;22.35;44.55;94473.78;5053774;28;20037;-72
2022/11/05 04:13:22;;;;;;;11.90;9.23;;;;;;;22.21;44.34;94469.53;5049506;28;20094;-62
2022/11/05 04:13:29;;;;;;;11.55;8.70;;;;;;;21.58;44.57;94365.28;5034751;28;20041;-63
2022/11/05 04:18:40;;;;;;;11.13;9.07;;;;;;;22.39;44.35;94468.78;5046621;28;20047;-67
2022/11/05 04:24:07;;;;;;;11.82;8.73;;;;;;;22.30;44.59;94482.75;5042470;28;20211;-68
2022/11/05 04:26:37;;;;;;;11.75;9.20;;;;;;;22.46;44.91;94468.19;5010768;28;20072;-63
2022/11/05 04:31:47;;;;;;;11.88;8.55;;;;;;;22.42;44.83;94487.53;5026272;28;20029;-67
2022/11/05 04:34:12;;;;;;;11.88;9.13;;;;;;;22.39;44.91;94474.22;5025759;28;20382;-68
2022/11/05 04:36:38;;;;;;;10.80;8.57;;;;;;;22.43;44.92;94490.97;5026974;28;21084;-65
2022/11/05 04:39:03;;;;;;;10.55;8.82;;;;;;;22.46;45.14;94506.28;5027449;28;20163;-67
2022/11/05 04:41:28;;;;;;;10.60;8.63;;;;;;;22.32;44.82;94485.69;5028438;28;20439;-70
2022/11/05 04:43:54;;;;;;;11.75;8.60;;;;;;;22.46;44.64;94495.38;5039439;28;25276;-66
2022/11/05 04:46:19;;;;;;;10.55;8.50;;;;;;;22.52;44.98;94509.66;5023078;28;20090;-65
2022/11/05 04:48:45;;;;;;;11.90;8.95;;;;;;;22.56;44.86;94516.28;5040579;28;20040;-66
2022/11/05 04:51:10;;;;;;;10.68;8.05;;;;;;;21.63;44.81;94356.31;5043344;28;20437;-69
2022/11/05 04:53:35;;;;;;;12.38;8.65;;;;;;;22.61;44.57;94501.84;5043148;28;22217;-65
2022/11/05 04:56:11;;;;;;;10.32;8.18;;;;;;;22.57;44.11;94473.44;5028442;28;20498;-68
2022/11/05 04:58:40;;;;;;;10.65;8.77;;;;;;;22.73;44.50;94486.09;5027449;28;20045;-63
2022/11/05 05:01:07;;;;;;;11.25;8.70;;;;;;;22.59;44.27;94470.97;5027846;28;20029;-63
2022/11/05 05:03:33;;;;;;;11.10;8.98;;;;;;;22.65;44.55;94480.50;5011844;28;20049;-69
2022/11/05 05:05:58;;;;;;;11.73;8.68;;;;;;;22.78;44.36;94493.44;5037885;28;20033;-71
2022/11/05 05:08:24;;;;;;;11.70;8.45;;;;;;;22.88;44.01;94493.28;5026957;28;20050;-65
2022/11/05 05:10:49;;;;;;;10.38;8.80;;;;;;;22.87;44.22;94490.34;5032833;28;20041;-70
2022/11/05 05:13:15;;;;;;;11.43;9.02;;;;;;;22.88;44.17;94491.81;5031522;28;20115;-66
2022/11/05 05:15:40;;;;;;;11.07;8.35;;;;;;;22.95;43.97;94509.03;5027528;28;20107;-67
2022/11/05 05:18:07;;;;;;;11.25;9.18;;;;;;;22.01;43.73;94363.94;5024637;28;20046;-66
2022/11/05 05:23:17;;;;;;;14.02;9.05;;;;;;;23.11;43.35;94531.84;5032959;28;20394;-70
2022/11/05 05:25:42;;;;;;;10.90;8.57;;;;;;;23.15;43.64;94513.94;5060745;28;20028;-69
2022/11/05 05:28:08;;;;;;;10.82;8.98;;;;;;;23.07;43.71;94515.78;5061175;28;20501;-66
2022/11/05 05:30:33;;;;;;;10.60;8.43;;;;;;;23.23;43.03;94525.69;5048081;28;20045;-69
2022/11/05 05:33:02;;;;;;;12.88;9.02;;;;;;;23.17;43.28;94530.50;5047853;28;20055;-63
2022/11/05 05:35:28;;;;;;;12.95;9.30;;;;;;;23.26;43.46;94535.56;5028535;28;20045;-67
2022/11/05 05:37:54;;;;;;;10.38;8.68;;;;;;;23.57;42.47;94546.44;5026944;28;20048;-67
2022/11/05 05:40:19;;;;;;;12.77;8.82;;;;;;;23.30;43.03;94543.41;5054317;28;20021;-66
2022/11/05 05:42:45;;;;;;;11.65;9.30;;;;;;;22.54;42.50;94414.63;5020946;28;20936;-63
2022/11/05 05:45:11;;;;;;;10.35;8.23;;;;;;;23.48;43.00;94546.06;5057511;28;20056;-63
2022/11/05 05:47:36;;;;;;;10.02;8.30;;;;;;;23.48;42.68;94543.34;5032445;28;20052;-65
2022/11/05 05:50:02;;;;;;;11.85;8.48;;;;;;;22.07;42.91;94340.13;5060039;28;20044;-64
2022/11/05 05:52:28;;;;;;;10.88;7.95;;;;;;;23.61;42.66;94527.03;5020042;28;20112;-66
2022/11/05 05:54:53;;;;;;;21.40;9.20;;;;;;;22.99;42.70;94444.13;5041479;28;20040;-60
2022/11/05 05:57:18;;;;;;;12.55;8.82;;;;;;;24.03;41.91;94554.75;5030605;28;20118;-68
2022/11/05 05:59:44;;;;;;;12.13;9.27;;;;;;;23.90;42.28;94551.28;5050777;28;20083;-66
2022/11/05 06:02:11;;;;;;;11.27;8.70;;;;;;;23.87;42.74;94549.66;5056523;28;20649;-63
2022/11/05 06:04:36;;;;;;;11.13;9.02;;;;;;;23.88;42.27;94556.53;5040395;28;20037;-67
2022/11/05 06:07:02;;;;;;;10.85;8.02;;;;;;;23.78;42.87;94549.28;5029345;28;20033;-65
2022/11/05 06:09:27;;;;;;;10.55;8.60;;;;;;;23.64;42.76;94523.28;5031988;28;20113;-69
2022/11/05 06:11:53;;;;;;;10.88;8.52;;;;;;;23.74;43.04;94548.91;5032653;28;20038;-62
2022/11/05 06:14:18;;;;;;;11.45;8.43;;;;;;;23.66;42.96;94520.75;5013321;28;20428;-67
2022/11/05 06:16:44;;;;;;;10.18;8.48;;;;;;;23.77;42.45;94550.56;5057854;28;20808;-65
2022/11/05 06:19:09;;;;;;;10.13;8.05;;;;;;;23.76;42.13;94524.56;5033289;28;20505;-67
2022/11/05 06:21:34;;;;;;;11.52;8.65;;;;;;;23.83;42.37;94534.84;5044279;28;20051;-61
2022/11/05 06:24:01;;;;;;;11.48;8.60;;;;;;;23.95;42.76;94543.03;5043111;28;20450;-66
2022/11/05 06:26:27;;;;;;;10.60;8.38;;;;;;;23.96;42.07;94544.50;5030735;28;20454;-67
2022/11/05 06:28:52;;;;;;;10.55;8.40;;;;;;;24.15;42.16;94545.13;5056054;28;20113;-71
2022/11/05 06:31:18;;;;;;;10.13;8.18;;;;;;;24.14;42.09;94538.22;5043805;28;20025;-66
2022/11/05 06:33:43;;;;;;;9.98;8.35;;;;;;;24.31;41.79;94554.97;5052054;28;20060;-70
2022/11/05 06:36:15;;;;;;;11.93;8.68;;;;;;;24.18;42.29;94549.53;5048224;28;20040;-69
2022/11/05 06:38:41;;;;;;;12.82;9.07;;;;;;;24.22;41.49;94533.56;5031242;28;20494;-65
2022/11/05 06:41:06;;;;;;;10.27;8.13;;;;;;;24.45;41.46;94551.00;5028981;28;20056;-67
2022/11/05 06:43:32;;;;;;;10.70;8.25;;;;;;;24.75;40.75;94540.44;5023958;28;20036;-73
2022/11/05 06:46:01;;;;;;;12.60;8.40;;;;;;;24.41;41.41;94534.94;5019523;28;20521;-66
2022/11/05 06:48:27;;;;;;;11.13;8.50;;;;;;;24.43;41.07;94559.00;5018187;28;20195;-62
2022/11/05 06:50:53;;;;;;;8.90;7.68;;;;;;;24.38;41.30;94540.75;5026086;28;20040;-65
2022/11/05 06:53:18;;;;;;;10.63;8.23;;;;;;;24.25;41.92;94548.91;5023115;28;20049;-66
2022/11/05 06:55:44;;;;;;;10.57;8.60;;;;;;;24.24;41.73;94531.03;5003910;28;20029;-62
2022/11/05 06:58:09;;;;;;;10.10;8.45;;;;;;;24.21;41.93;94526.66;5030913;28;20514;-67
2022/11/05 07:00:35;;;;;;;12.40;8.20;;;;;;;23.41;41.51;94396.84;5042029;28;20072;-61
2022/11/05 07:03:08;;;;;;;11.40;8.05;;;;;;;24.34;41.75;94534.84;5014559;28;20118;-67
2022/11/05 07:05:34;;;;;;;13.43;8.60;;;;;;;23.40;41.32;94374.28;5003907;28;20057;-71
2022/11/05 07:08:00;;;;;;;10.43;8.27;;;;;;;24.47;41.38;94515.75;5003980;28;20076;-67
2022/11/05 07:10:25;;;;;;;11.55;8.82;;;;;;;24.44;40.86;94519.53;5022388;28;20025;-68
2022/11/05 07:12:51;;;;;;;9.85;8.00;;;;;;;24.34;41.49;94523.94;5041597;28;20048;-68
2022/11/05 07:15:16;;;;;;;9.75;8.02;;;;;;;23.59;41.40;94412.34;5035129;28;20045;-69
2022/11/05 07:17:42;;;;;;;9.57;8.18;;;;;;;24.35;41.17;94509.03;5024420;28;20029;-60
2022/11/05 07:20:08;;;;;;;10.90;8.50;;;;;;;24.32;41.03;94510.06;5024326;28;20041;-66
2022/11/05 07:22:34;;;;;;;11.32;8.48;;;;;;;24.47;40.75;94515.75;5028339;28;20090;-67
2022/11/05 07:24:59;;;;;;;10.40;8.40;;;;;;;24.50;40.94;94520.16;5003809;28;20411;-64
2022/11/05 07:27:24;;;;;;;10.70;8.63;;;;;;;23.98;40.09;94396.69;5022980;28;20078;-65
2022/11/05 07:29:50;;;;;;;10.50;8.30;;;;;;;24.54;40.76;94521.28;5021152;28;20346;-67
2022/11/05 07:32:15;;;;;;;12.45;9.18;;;;;;;23.49;40.77;94367.69;5023228;28;20430;-70
2022/11/05 07:34:41;;;;;;;11.25;8.13;;;;;;;24.64;40.79;94516.84;5005619;28;20517;-67
2022/11/05 07:37:06;;;;;;;10.82;8.18;;;;;;;24.70;40.23;94505.81;5022013;28;20033;-70
2022/11/05 07:39:32;;;;;;;9.00;7.22;;;;;;;24.67;40.84;94509.59;5023819;28;20037;-70
2022/11/05 07:41:57;;;;;;;9.80;7.85;;;;;;;23.91;41.02;94395.31;5021369;28;20387;-66
2022/11/05 07:44:23;;;;;;;9.93;7.85;;;;;;;24.69;39.93;94471.56;5025889;28;20120;-71
2022/11/05 07:46:49;;;;;;;10.90;8.20;;;;;;;24.74;40.15;94500.72;5021251;28;20034;-66
2022/11/05 07:49:15;;;;;;;12.38;8.75;;;;;;;24.77;40.07;94499.66;5022394;28;20060;-65
2022/11/05 07:51:40;;;;;;;11.35;8.48;;;;;;;24.93;39.81;94491.84;5023798;28;20052;-68
2022/11/05 07:54:06;;;;;;;10.15;7.95;;;;;;;24.77;40.16;94499.66;5021488;28;20462;-66
2022/11/05 07:56:31;;;;;;;10.82;8.60;;;;;;;24.74;40.25;94500.72;5024295;28;20041;-67
2022/11/05 07:58:56;;;;;;;9.48;7.70;;;;;;;24.92;39.74;94484.91;5023181;28;20447;-71
2022/11/05 08:01:22;;;;;;;10.95;8.30;;;;;;;24.90;39.79;94487.44;5024841;28;20037;-69
2022/11/05 08:03:47;;;;;;;12.85;8.40;;;;;;;24.83;39.34;94466.25;5027443;28;20057;-67
2022/11/05 08:06:13;;;;;;;9.98;7.85;;;;;;;24.83;39.74;94471.72;5024989;28;20045;-63
2022/11/05 08:08:38;;;;;;;10.98;8.27;;;;;;;25.00;39.50;94487.75;5026849;28;20479;-66
2022/11/05 08:11:08;;;;;;;12.45;9.20;;;;;;;25.02;39.82;94505.09;5038819;28;20505;-62
2022/11/05 08:13:34;;;;;;;11.55;8.68;;;;;;;25.17;39.64;94488.84;5027090;28;20026;-69
2022/11/05 08:16:00;;;;;;;12.55;8.20;;;;;;;25.09;39.76;94482.53;5040187;28;20387;-68
2022/11/05 08:18:30;;;;;;;10.98;8.35;;;;;;;25.22;39.32;94489.97;5044426;28;20041;-66
2022/11/05 08:20:56;;;;;;;12.10;9.10;;;;;;;25.17;39.38;94488.84;5042558;28;20052;-65
2022/11/05 08:23:21;;;;;;;12.35;8.82;;;;;;;24.28;39.41;94378.66;5049263;28;20052;-69
2022/11/05 08:25:47;;;;;;;12.32;8.80;;;;;;;25.05;39.52;94476.69;5054748;28;20036;-70
2022/11/05 08:28:12;;;;;;;12.05;8.68;;;;;;;24.93;39.38;94491.09;5053484;28;20226;-64
2022/11/05 08:30:37;;;;;;;10.82;8.85;;;;;;;24.82;39.83;94475.69;5044645;28;20037;-68
2022/11/05 08:33:08;;;;;;;11.20;8.48;;;;;;;25.40;39.05;94485.00;5040679;28;20099;-72
2022/11/05 08:35:34;;;;;;;10.73;8.38;;;;;;;25.16;39.64;94481.16;5024437;28;20048;-70
2022/11/05 08:38:01;;;;;;;11.48;7.97;;;;;;;25.33;39.15;94485.69;5040719;28;20049;-65
2022/11/05 08:40:27;;;;;;;10.48;8.07;;;;;;;25.52;38.79;94475.25;5044858;28;20185;-72
2022/11/05 08:42:55;;;;;;;10.88;8.60;;;;;;;25.47;38.70;94472.66;5043798;28;20059;-69
2022/11/05 08:45:21;;;;;;;11.95;8.70;;;;;;;25.51;38.79;94497.66;5043969;28;20048;-63
2022/11/05 08:47:46;;;;;;;10.82;8.50;;;;;;;25.03;39.05;94462.81;5044515;28;20483;-67
2022/11/05 08:50:12;;;;;;;11.60;8.27;;;;;;;24.95;39.83;94478.38;5058226;28;20157;-66
2022/11/05 08:52:39;;;;;;;11.68;8.38;;;;;;;25.15;39.17;94469.47;5057560;28;20025;-66
2022/11/05 08:55:05;;;;;;;10.85;8.43;;;;;;;25.31;39.15;94477.28;5048735;28;20351;-62
2022/11/05 08:57:30;;;;;;;11.85;8.07;;;;;;;25.41;38.80;94474.78;5032137;28;20097;-65
2022/11/05 08:59:56;;;;;;;11.82;8.23;;;;;;;25.37;39.18;94477.16;5064513;28;20126;-67
2022/11/05 09:02:21;;;;;;;10.55;7.95;;;;;;;25.15;39.40;94480.41;5061726;28;20316;-67
2022/11/05 09:04:46;;;;;;;9.63;7.57;;;;;;;25.30;39.51;94475.06;5055464;28;20033;-70
2022/11/05 09:07:12;;;;;;;9.95;7.88;;;;;;;25.18;39.33;94468.41;5050231;28;20033;-66
2022/11/05 09:09:37;;;;;;;11.48;8.80;;;;;;;25.26;39.28;94463.75;5064292;28;20052;-69
2022/11/05 09:12:03;;;;;;;9.35;7.82;;;;;;;24.37;39.11;94320.94;5032061;28;20071;-67
2022/11/05 09:14:30;;;;;;;11.15;8.20;;;;;;;25.22;39.76;94466.09;5043606;28;20044;-72
2022/11/05 09:16:55;;;;;;;10.98;8.38;;;;;;;25.40;39.19;94478.81;5043251;28;20194;-68
2022/11/05 09:19:21;;;;;;;9.73;8.05;;;;;;;25.40;39.44;94474.06;5044319;28;20459;-70
2022/11/05 09:21:46;;;;;;;10.27;8.20;;;;;;;25.19;39.59;94458.25;5030890;28;20045;-69
2022/11/05 09:24:12;;;;;;;9.93;8.15;;;;;;;25.23;39.05;94437.50;5036159;28;20049;-66
2022/11/05 09:26:37;;;;;;;9.40;7.88;;;;;;;25.41;39.34;94483.00;5025390;28;20049;-69
2022/11/05 09:29:02;;;;;;;10.02;7.50;;;;;;;25.31;39.56;94470.38;5022807;28;20041;-68
2022/11/05 09:31:28;;;;;;;9.93;7.82;;;;;;;25.23;39.62;94442.97;5025349;28;20091;-71
2022/11/05 09:33:53;;;;;;;13.45;8.05;;;;;;;25.40;39.45;94452.19;5046012;28;20045;-65
2022/11/05 09:36:19;;;;;;;11.73;8.18;;;;;;;25.16;39.79;94449.09;5062991;28;20480;-69
2022/11/05 09:38:44;;;;;;;9.95;7.88;;;;;;;25.45;39.51;94436.91;5047539;28;20052;-69
2022/11/05 09:41:36;;;;;;;10.18;7.88;;;;;;;25.50;39.25;94471.56;5061171;28;20044;-65
2022/11/05 09:44:09;;;;;;;10.65;8.25;;;;;;;25.73;39.18;94445.16;5040646;28;20044;-70
2022/11/05 09:46:55;;;;;;;11.18;7.88;;;;;;;25.71;39.05;94447.69;5046186;28;20116;-70
2022/11/05 09:49:26;;;;;;;11.05;7.65;;;;;;;25.86;38.86;94432.84;5044972;28;20493;-67
2022/11/05 09:51:53;;;;;;;11.13;8.02;;;;;;;25.98;38.55;94423.03;5033217;28;20080;-65
2022/11/05 09:54:20;;;;;;;10.13;7.88;;;;;;;25.90;38.38;94449.66;5009950;28;20048;-63
2022/11/05 09:56:45;;;;;;;9.52;7.50;;;;;;;26.04;38.51;94436.59;5039439;28;20041;-67
2022/11/05 09:59:32;;;;;;;10.30;8.10;;;;;;;25.82;38.80;94442.66;5055145;28;20257;-64
2022/11/05 10:02:13;;;;;;;12.25;7.97;;;;;;;25.52;39.43;94441.72;5031322;28;20056;-66
2022/11/05 10:04:38;;;;;;;11.40;8.05;;;;;;;25.73;38.84;94445.16;5023210;28;20385;-66
2022/11/05 10:07:04;;;;;;;9.57;7.28;;;;;;;25.22;39.76;94446.97;5025839;28;20029;-67
2022/11/05 10:09:44;;;;;;;9.57;7.55;;;;;;;25.17;39.97;94450.56;5031977;28;20102;-66
2022/11/05 10:12:34;;;;;;;10.63;8.00;;;;;;;25.19;39.77;94434.38;5046206;28;20049;-64
2022/11/05 10:15:21;;;;;;;9.80;7.50;;;;;;;25.07;39.93;94430.44;5036620;28;20040;-70
2022/11/05 10:17:50;;;;;;;10.48;7.78;;;;;;;25.05;40.07;94422.06;5026856;28;20052;-67
2022/11/05 10:20:25;;;;;;;11.07;8.00;;;;;;;25.47;39.43;94423.44;5044200;28;20526;-70
2022/11/05 10:22:55;;;;;;;14.38;8.52;;;;;;;25.54;37.80;94420.03;5052538;28;20036;-69
2022/11/05 10:25:29;;;;;;;11.50;8.57;;;;;;;25.08;38.36;94421.00;5045951;28;20024;-68
2022/11/05 10:27:55;;;;;;;15.20;8.75;;;;;;;25.08;38.25;94431.91;5028255;28;20054;-68
2022/11/05 10:30:20;;;;;;;12.98;9.93;;;;;;;24.96;38.38;94424.47;5018512;28;20059;-64
2022/11/05 10:32:46;;;;;;;12.25;8.60;;;;;;;24.85;37.81;94387.22;5010046;28;20059;-65
2022/11/05 10:35:21;;;;;;;11.98;8.35;;;;;;;23.83;37.82;94224.00;5026889;28;20037;-72
2022/11/05 10:37:49;;;;;;;10.98;8.48;;;;;;;23.55;39.06;94205.50;5046282;28;20029;-70
2022/11/05 10:40:36;;;;;;;9.15;7.40;;;;;;;24.76;39.27;94362.41;5045366;28;20055;-70
2022/11/05 10:43:09;;;;;;;10.43;7.78;;;;;;;25.10;39.68;94417.72;5036200;28;20103;-63
2022/11/05 10:46:05;;;;;;;11.02;7.85;;;;;;;25.36;39.26;94412.81;5048055;28;20440;-70
2022/11/05 10:49:08;;;;;;;10.02;7.75;;;;;;;25.14;39.54;94423.56;5058565;28;20052;-65
2022/11/05 10:51:33;;;;;;;11.85;8.40;;;;;;;25.00;39.96;94420.16;5050866;28;20045;-64
2022/11/05 10:54:03;;;;;;;11.75;8.00;;;;;;;25.11;39.62;94409.00;5023377;28;20048;-69
2022/11/05 10:56:36;;;;;;;12.30;8.15;;;;;;;24.25;39.86;94297.88;5024737;28;20033;-69
2022/11/05 10:59:03;;;;;;;11.63;7.85;;;;;;;24.96;40.55;94417.03;5021203;28;20041;-69
2022/11/05 11:01:29;;;;;;;11.32;8.05;;;;;;;24.98;40.41;94411.75;5025060;28;20064;-67
2022/11/05 11:04:27;;;;;;;10.10;7.80;;;;;;;25.16;39.83;94397.19;5024006;28;20041;-65
2022/11/05 11:06:54;;;;;;;11.80;7.72;;;;;;;24.87;40.43;94390.19;4998751;28;20278;-68
2022/11/05 11:09:24;;;;;;;9.88;8.07;;;;;;;24.99;39.96;94380.47;5003973;28;20082;-63
2022/11/05 11:12:05;;;;;;;9.88;7.78;;;;;;;25.17;39.93;94389.69;5025058;28;20355;-64
2022/11/05 11:14:30;;;;;;;9.77;7.38;;;;;;;25.04;40.44;94415.13;5040466;28;20139;-66
2022/11/05 11:17:23;;;;;;;10.68;7.43;;;;;;;25.13;40.03;94390.06;5039051;28;20048;-61
2022/11/05 11:19:48;;;;;;;10.68;7.88;;;;;;;25.01;40.36;94388.88;5008288;28;20061;-63
2022/11/05 11:22:17;;;;;;;9.73;7.60;;;;;;;25.11;40.00;94392.59;5021630;28;20033;-67
2022/11/05 11:24:48;;;;;;;10.82;7.60;;;;;;;25.10;40.16;94391.13;5021376;28;20059;-69
2022/11/05 11:27:32;;;;;;;10.40;7.57;;;;;;;24.35;39.74;94252.50;5006919;28;20066;-66
2022/11/05 11:30:01;;;;;;;9.93;7.90;;;;;;;24.89;40.26;94365.78;5007222;28;20373;-68
2022/11/05 11:32:35;;;;;;;11.30;8.18;;;;;;;25.07;39.81;94394.91;5006748;28;20029;-71
2022/11/05 11:35:00;;;;;;;10.88;7.50;;;;;;;25.00;40.45;94387.38;5005477;28;20118;-63
2022/11/05 11:37:36;;;;;;;8.95;7.60;;;;;;;25.29;39.69;94386.16;5010552;28;20425;-63
2022/11/05 11:40:10;;;;;;;9.73;7.32;;;;;;;25.19;40.42;94381.72;5025421;28;20521;-63
2022/11/05 11:42:38;;;;;;;10.73;7.90;;;;;;;24.22;40.66;94282.56;5029136;28;20090;-66
2022/11/05 11:45:37;;;;;;;9.50;7.30;;;;;;;24.99;40.19;94388.69;5011835;28;20254;-66
2022/11/05 11:48:06;;;;;;;10.32;7.82;;;;;;;25.11;40.39;94387.13;5007722;28;20116;-71
2022/11/05 11:50:42;;;;;;;9.90;7.60;;;;;;;24.88;40.80;94397.09;5026954;28;20046;-63
2022/11/05 11:53:20;;;;;;;10.77;7.70;;;;;;;25.18;40.02;94380.97;5011680;28;20486;-68
2022/11/05 11:56:04;;;;;;;9.93;7.10;;;;;;;25.15;40.41;94371.09;5026795;28;20037;-67
2022/11/05 11:58:49;;;;;;;10.65;7.22;;;;;;;25.00;40.39;94364.81;5026366;28;20029;-67
2022/11/05 12:02:02;;;;;;;8.85;7.43;;;;;;;24.67;40.70;94321.19;5011999;28;20053;-67
2022/11/05 12:04:40;;;;;;;9.60;7.00;;;;;;;23.39;40.11;94126.84;5014223;28;20050;-64
2022/11/05 12:07:17;;;;;;;10.10;7.35;;;;;;;25.13;40.33;94373.66;5034971;28;20528;-63
2022/11/05 12:10:10;;;;;;;11.57;7.47;;;;;;;25.12;40.24;94372.19;5024787;28;20129;-67
2022/11/05 12:12:39;;;;;;;11.13;7.55;;;;;;;25.14;40.10;94369.66;5027010;28;20055;-68
2022/11/05 12:15:10;;;;;;;9.70;7.25;;;;;;;25.57;39.33;94361.53;5026098;28;20128;-65